sensor_id;sensor_type;location;lat;lon;timestamp;P1;durP1;ratioP1;P2;durP2;ratioP2
21731;SDS011;11028;51.156;17.130;2023-12-07T00:05:43;101.75;;;39.40;;
21731;SDS011;11028;51.156;17.130;2023-12-07T00:13:01;106.80;;;40.15;;
21731;SDS011;11028;51.156;17.130;2023-12-07T00:20:20;98.65;;;39.63;;
21731;SDS011;11028;51.156;17.130;2023-12-07T00:27:40;98.68;;;41.47;;
21731;SDS011;11028;51.156;17.130;2023-12-07T00:34:58;102.55;;;36.90;;
21731;SDS011;11028;51.156;17.130;2023-12-07T00:42:16;88.57;;;38.13;;
21731;SDS011;11028;51.156;17.130;2023-12-07T00:49:38;99.53;;;38.88;;
21731;SDS011;11028;51.156;17.130;2023-12-07T00:56:57;104.88;;;40.95;;
21731;SDS011;11028;51.156;17.130;2023-12-07T01:04:16;102.72;;;40.63;;
21731;SDS011;11028;51.156;17.130;2023-12-07T01:11:36;107.03;;;39.40;;
21731;SDS011;11028;51.156;17.130;2023-12-07T01:18:54;106.63;;;39.70;;
21731;SDS011;11028;51.156;17.130;2023-12-07T01:26:14;99.70;;;39.72;;
21731;SDS011;11028;51.156;17.130;2023-12-07T01:33:34;106.38;;;40.85;;
21731;SDS011;11028;51.156;17.130;2023-12-07T01:40:52;103.90;;;38.42;;
21731;SDS011;11028;51.156;17.130;2023-12-07T01:48:11;110.53;;;40.10;;
21731;SDS011;11028;51.156;17.130;2023-12-07T01:55:30;99.18;;;40.35;;
21731;SDS011;11028;51.156;17.130;2023-12-07T02:02:50;106.78;;;39.28;;
21731;SDS011;11028;51.156;17.130;2023-12-07T02:10:11;103.00;;;39.75;;
21731;SDS011;11028;51.156;17.130;2023-12-07T02:17:33;82.78;;;32.47;;
21731;SDS011;11028;51.156;17.130;2023-12-07T02:24:59;104.05;;;38.75;;
21731;SDS011;11028;51.156;17.130;2023-12-07T02:32:24;111.55;;;40.08;;
21731;SDS011;11028;51.156;17.130;2023-12-07T02:39:43;101.78;;;38.70;;
21731;SDS011;11028;51.156;17.130;2023-12-07T02:47:02;103.38;;;40.65;;
21731;SDS011;11028;51.156;17.130;2023-12-07T02:54:22;110.53;;;42.55;;
21731;SDS011;11028;51.156;17.130;2023-12-07T03:01:40;115.03;;;42.03;;
21731;SDS011;11028;51.156;17.130;2023-12-07T03:08:59;102.28;;;41.33;;
21731;SDS011;11028;51.156;17.130;2023-12-07T03:16:19;108.28;;;40.05;;
21731;SDS011;11028;51.156;17.130;2023-12-07T03:23:37;113.97;;;40.13;;
21731;SDS011;11028;51.156;17.130;2023-12-07T03:30:55;103.45;;;42.25;;
21731;SDS011;11028;51.156;17.130;2023-12-07T03:38:15;110.22;;;41.15;;
21731;SDS011;11028;51.156;17.130;2023-12-07T03:45:34;100.35;;;40.63;;
21731;SDS011;11028;51.156;17.130;2023-12-07T03:52:52;100.43;;;40.80;;
21731;SDS011;11028;51.156;17.130;2023-12-07T04:00:12;102.97;;;42.63;;
21731;SDS011;11028;51.156;17.130;2023-12-07T04:07:31;110.93;;;42.28;;
21731;SDS011;11028;51.156;17.130;2023-12-07T04:14:50;102.85;;;41.08;;
21731;SDS011;11028;51.156;17.130;2023-12-07T04:22:10;115.40;;;43.22;;
21731;SDS011;11028;51.156;17.130;2023-12-07T04:29:28;105.82;;;42.60;;
21731;SDS011;11028;51.156;17.130;2023-12-07T04:36:47;110.93;;;42.80;;
21731;SDS011;11028;51.156;17.130;2023-12-07T04:44:09;116.10;;;43.90;;
21731;SDS011;11028;51.156;17.130;2023-12-07T04:51:27;105.85;;;42.22;;
21731;SDS011;11028;51.156;17.130;2023-12-07T04:58:46;114.85;;;41.38;;
21731;SDS011;11028;51.156;17.130;2023-12-07T05:06:06;116.32;;;45.05;;
21731;SDS011;11028;51.156;17.130;2023-12-07T05:13:25;111.00;;;42.60;;
21731;SDS011;11028;51.156;17.130;2023-12-07T05:20:43;116.82;;;44.70;;
21731;SDS011;11028;51.156;17.130;2023-12-07T05:28:04;123.13;;;46.13;;
21731;SDS011;11028;51.156;17.130;2023-12-07T05:35:22;120.78;;;47.33;;
21731;SDS011;11028;51.156;17.130;2023-12-07T05:42:41;120.32;;;45.70;;
21731;SDS011;11028;51.156;17.130;2023-12-07T05:50:01;129.10;;;46.80;;
21731;SDS011;11028;51.156;17.130;2023-12-07T05:57:19;123.55;;;46.50;;
21731;SDS011;11028;51.156;17.130;2023-12-07T06:04:38;126.18;;;46.15;;
21731;SDS011;11028;51.156;17.130;2023-12-07T06:11:58;122.70;;;46.80;;
21731;SDS011;11028;51.156;17.130;2023-12-07T06:19:17;108.25;;;46.75;;
21731;SDS011;11028;51.156;17.130;2023-12-07T06:26:36;122.57;;;47.03;;
21731;SDS011;11028;51.156;17.130;2023-12-07T06:33:55;114.55;;;46.60;;
21731;SDS011;11028;51.156;17.130;2023-12-07T06:41:14;129.30;;;50.17;;
21731;SDS011;11028;51.156;17.130;2023-12-07T06:48:33;134.63;;;48.05;;
21731;SDS011;11028;51.156;17.130;2023-12-07T06:55:53;113.55;;;47.63;;
21731;SDS011;11028;51.156;17.130;2023-12-07T07:03:12;127.80;;;49.75;;
21731;SDS011;11028;51.156;17.130;2023-12-07T07:10:31;133.80;;;48.25;;
21731;SDS011;11028;51.156;17.130;2023-12-07T07:17:51;158.07;;;51.53;;
21731;SDS011;11028;51.156;17.130;2023-12-07T07:25:13;160.35;;;54.40;;
21731;SDS011;11028;51.156;17.130;2023-12-07T07:32:33;154.88;;;52.83;;
21731;SDS011;11028;51.156;17.130;2023-12-07T07:39:52;144.52;;;53.17;;
21731;SDS011;11028;51.156;17.130;2023-12-07T07:47:11;166.35;;;54.42;;
21731;SDS011;11028;51.156;17.130;2023-12-07T07:54:29;178.85;;;55.78;;
21731;SDS011;11028;51.156;17.130;2023-12-07T08:01:50;180.15;;;63.50;;
21731;SDS011;11028;51.156;17.130;2023-12-07T08:09:09;187.05;;;63.72;;
21731;SDS011;11028;51.156;17.130;2023-12-07T08:16:27;150.77;;;54.42;;
21731;SDS011;11028;51.156;17.130;2023-12-07T08:23:47;174.80;;;58.63;;
21731;SDS011;11028;51.156;17.130;2023-12-07T08:31:07;182.27;;;59.22;;
21731;SDS011;11028;51.156;17.130;2023-12-07T08:38:25;178.07;;;62.40;;
21731;SDS011;11028;51.156;17.130;2023-12-07T08:45:46;184.93;;;63.80;;
21731;SDS011;11028;51.156;17.130;2023-12-07T08:53:04;184.20;;;57.70;;
21731;SDS011;11028;51.156;17.130;2023-12-07T09:00:23;165.48;;;54.70;;
21731;SDS011;11028;51.156;17.130;2023-12-07T09:07:44;160.15;;;54.45;;
21731;SDS011;11028;51.156;17.130;2023-12-07T09:15:05;160.23;;;55.67;;
21731;SDS011;11028;51.156;17.130;2023-12-07T09:22:28;158.63;;;56.78;;
21731;SDS011;11028;51.156;17.130;2023-12-07T09:29:54;163.98;;;55.40;;
21731;SDS011;11028;51.156;17.130;2023-12-07T09:37:12;148.52;;;52.10;;
21731;SDS011;11028;51.156;17.130;2023-12-07T09:44:33;151.18;;;52.65;;
21731;SDS011;11028;51.156;17.130;2023-12-07T09:51:54;161.60;;;56.25;;
21731;SDS011;11028;51.156;17.130;2023-12-07T09:59:13;162.30;;;53.42;;
21731;SDS011;11028;51.156;17.130;2023-12-07T10:06:42;175.70;;;58.67;;
21731;SDS011;11028;51.156;17.130;2023-12-07T10:14:02;152.20;;;56.35;;
21731;SDS011;11028;51.156;17.130;2023-12-07T10:21:30;168.98;;;56.13;;
21731;SDS011;11028;51.156;17.130;2023-12-07T10:28:49;177.23;;;56.75;;
21731;SDS011;11028;51.156;17.130;2023-12-07T10:36:14;173.95;;;59.95;;
21731;SDS011;11028;51.156;17.130;2023-12-07T10:43:33;169.38;;;58.13;;
21731;SDS011;11028;51.156;17.130;2023-12-07T10:50:55;198.37;;;62.87;;
21731;SDS011;11028;51.156;17.130;2023-12-07T10:58:16;161.70;;;56.45;;
21731;SDS011;11028;51.156;17.130;2023-12-07T11:05:34;173.77;;;59.22;;
21731;SDS011;11028;51.156;17.130;2023-12-07T11:12:55;161.73;;;57.67;;
21731;SDS011;11028;51.156;17.130;2023-12-07T11:20:20;163.52;;;57.70;;
21731;SDS011;11028;51.156;17.130;2023-12-07T11:27:39;173.57;;;59.80;;
21731;SDS011;11028;51.156;17.130;2023-12-07T11:35:01;180.52;;;61.80;;
21731;SDS011;11028;51.156;17.130;2023-12-07T11:42:23;177.57;;;59.90;;
21731;SDS011;11028;51.156;17.130;2023-12-07T11:49:42;180.02;;;57.28;;
21731;SDS011;11028;51.156;17.130;2023-12-07T11:57:01;168.55;;;58.20;;
21731;SDS011;11028;51.156;17.130;2023-12-07T12:04:22;172.73;;;58.65;;
21731;SDS011;11028;51.156;17.130;2023-12-07T12:11:43;161.43;;;55.42;;
21731;SDS011;11028;51.156;17.130;2023-12-07T12:19:03;158.83;;;49.77;;
21731;SDS011;11028;51.156;17.130;2023-12-07T12:26:27;177.85;;;52.72;;
21731;SDS011;11028;51.156;17.130;2023-12-07T12:33:47;179.20;;;52.60;;
21731;SDS011;11028;51.156;17.130;2023-12-07T12:41:06;180.85;;;54.95;;
21731;SDS011;11028;51.156;17.130;2023-12-07T12:48:27;166.20;;;52.35;;
21731;SDS011;11028;51.156;17.130;2023-12-07T12:55:45;167.75;;;55.00;;
21731;SDS011;11028;51.156;17.130;2023-12-07T13:03:05;175.70;;;55.67;;
21731;SDS011;11028;51.156;17.130;2023-12-07T13:10:25;171.98;;;53.20;;
21731;SDS011;11028;51.156;17.130;2023-12-07T13:17:44;169.27;;;52.10;;
21731;SDS011;11028;51.156;17.130;2023-12-07T13:25:02;157.30;;;50.30;;
21731;SDS011;11028;51.156;17.130;2023-12-07T13:32:23;147.60;;;47.63;;
21731;SDS011;11028;51.156;17.130;2023-12-07T13:39:41;147.43;;;47.30;;
21731;SDS011;11028;51.156;17.130;2023-12-07T13:47:00;189.95;;;60.28;;
21731;SDS011;11028;51.156;17.130;2023-12-07T13:54:20;151.88;;;50.72;;
21731;SDS011;11028;51.156;17.130;2023-12-07T14:01:56;180.93;;;52.42;;
21731;SDS011;11028;51.156;17.130;2023-12-07T14:09:16;146.43;;;48.33;;
21731;SDS011;11028;51.156;17.130;2023-12-07T14:16:36;139.15;;;44.70;;
21731;SDS011;11028;51.156;17.130;2023-12-07T14:24:06;139.85;;;46.47;;
21731;SDS011;11028;51.156;17.130;2023-12-07T14:31:25;140.80;;;49.42;;
21731;SDS011;11028;51.156;17.130;2023-12-07T14:38:45;146.00;;;48.33;;
21731;SDS011;11028;51.156;17.130;2023-12-07T14:46:05;135.77;;;48.63;;
21731;SDS011;11028;51.156;17.130;2023-12-07T14:53:24;137.18;;;47.60;;
21731;SDS011;11028;51.156;17.130;2023-12-07T15:00:45;140.10;;;49.15;;
21731;SDS011;11028;51.156;17.130;2023-12-07T15:08:05;140.38;;;52.47;;
21731;SDS011;11028;51.156;17.130;2023-12-07T15:15:23;151.23;;;50.92;;
21731;SDS011;11028;51.156;17.130;2023-12-07T15:22:43;152.13;;;51.10;;
21731;SDS011;11028;51.156;17.130;2023-12-07T15:30:03;152.30;;;59.17;;
21731;SDS011;11028;51.156;17.130;2023-12-07T15:37:24;159.50;;;56.38;;
21731;SDS011;11028;51.156;17.130;2023-12-07T15:44:43;148.80;;;56.35;;
21731;SDS011;11028;51.156;17.130;2023-12-07T15:52:02;194.57;;;65.68;;
21731;SDS011;11028;51.156;17.130;2023-12-07T15:59:21;156.15;;;57.17;;
21731;SDS011;11028;51.156;17.130;2023-12-07T16:06:41;158.10;;;58.92;;
21731;SDS011;11028;51.156;17.130;2023-12-07T16:14:00;150.40;;;60.70;;
21731;SDS011;11028;51.156;17.130;2023-12-07T16:21:20;154.10;;;56.17;;
21731;SDS011;11028;51.156;17.130;2023-12-07T16:28:42;143.45;;;52.08;;
21731;SDS011;11028;51.156;17.130;2023-12-07T16:36:01;151.95;;;49.80;;
21731;SDS011;11028;51.156;17.130;2023-12-07T16:43:27;137.10;;;48.22;;
21731;SDS011;11028;51.156;17.130;2023-12-07T16:50:47;164.10;;;53.88;;
21731;SDS011;11028;51.156;17.130;2023-12-07T16:58:05;145.98;;;50.53;;
21731;SDS011;11028;51.156;17.130;2023-12-07T17:05:25;157.18;;;54.65;;
21731;SDS011;11028;51.156;17.130;2023-12-07T17:12:46;152.63;;;52.92;;
21731;SDS011;11028;51.156;17.130;2023-12-07T17:20:06;153.23;;;54.83;;
21731;SDS011;11028;51.156;17.130;2023-12-07T17:27:25;145.65;;;52.60;;
21731;SDS011;11028;51.156;17.130;2023-12-07T17:34:45;163.95;;;55.30;;
21731;SDS011;11028;51.156;17.130;2023-12-07T17:42:04;168.18;;;58.83;;
21731;SDS011;11028;51.156;17.130;2023-12-07T17:49:23;161.57;;;58.17;;
21731;SDS011;11028;51.156;17.130;2023-12-07T17:56:43;163.45;;;56.08;;
21731;SDS011;11028;51.156;17.130;2023-12-07T18:04:01;194.93;;;66.45;;
21731;SDS011;11028;51.156;17.130;2023-12-07T18:11:20;191.05;;;66.40;;
21731;SDS011;11028;51.156;17.130;2023-12-07T18:18:41;190.30;;;68.47;;
21731;SDS011;11028;51.156;17.130;2023-12-07T18:25:59;180.60;;;60.08;;
21731;SDS011;11028;51.156;17.130;2023-12-07T18:33:17;176.02;;;59.42;;
21731;SDS011;11028;51.156;17.130;2023-12-07T18:40:37;189.00;;;61.20;;
21731;SDS011;11028;51.156;17.130;2023-12-07T18:55:18;219.18;;;73.78;;
21731;SDS011;11028;51.156;17.130;2023-12-07T19:02:37;224.32;;;72.35;;
21731;SDS011;11028;51.156;17.130;2023-12-07T19:09:56;223.18;;;70.90;;
21731;SDS011;11028;51.156;17.130;2023-12-07T19:17:14;228.07;;;66.07;;
21731;SDS011;11028;51.156;17.130;2023-12-07T19:24:34;220.20;;;62.22;;
21731;SDS011;11028;51.156;17.130;2023-12-07T19:31:53;221.15;;;66.47;;
21731;SDS011;11028;51.156;17.130;2023-12-07T19:39:11;198.38;;;56.72;;
21731;SDS011;11028;51.156;17.130;2023-12-07T19:46:35;205.68;;;56.33;;
21731;SDS011;11028;51.156;17.130;2023-12-07T19:53:54;194.65;;;55.25;;
21731;SDS011;11028;51.156;17.130;2023-12-07T20:01:13;200.65;;;59.35;;
21731;SDS011;11028;51.156;17.130;2023-12-07T20:08:32;228.20;;;59.10;;
21731;SDS011;11028;51.156;17.130;2023-12-07T20:15:52;229.90;;;63.72;;
21731;SDS011;11028;51.156;17.130;2023-12-07T20:23:10;246.05;;;63.20;;
21731;SDS011;11028;51.156;17.130;2023-12-07T20:30:30;233.68;;;61.38;;
21731;SDS011;11028;51.156;17.130;2023-12-07T20:37:49;247.90;;;60.45;;
21731;SDS011;11028;51.156;17.130;2023-12-07T20:45:09;366.02;;;61.25;;
21731;SDS011;11028;51.156;17.130;2023-12-07T20:52:29;268.08;;;61.92;;
21731;SDS011;11028;51.156;17.130;2023-12-07T20:59:47;295.13;;;63.63;;
21731;SDS011;11028;51.156;17.130;2023-12-07T21:07:06;247.60;;;64.93;;
21731;SDS011;11028;51.156;17.130;2023-12-07T21:14:26;362.23;;;70.65;;
21731;SDS011;11028;51.156;17.130;2023-12-07T21:21:46;407.83;;;69.88;;
21731;SDS011;11028;51.156;17.130;2023-12-07T21:29:05;315.83;;;62.28;;
21731;SDS011;11028;51.156;17.130;2023-12-07T21:36:24;298.98;;;62.13;;
21731;SDS011;11028;51.156;17.130;2023-12-07T21:43:43;388.92;;;64.35;;
21731;SDS011;11028;51.156;17.130;2023-12-07T21:51:02;437.10;;;67.00;;
21731;SDS011;11028;51.156;17.130;2023-12-07T21:58:23;275.73;;;56.97;;
21731;SDS011;11028;51.156;17.130;2023-12-07T22:05:42;237.38;;;60.95;;
21731;SDS011;11028;51.156;17.130;2023-12-07T22:13:00;364.45;;;63.17;;
21731;SDS011;11028;51.156;17.130;2023-12-07T22:20:20;302.90;;;61.45;;
21731;SDS011;11028;51.156;17.130;2023-12-07T22:27:43;295.77;;;60.22;;
21731;SDS011;11028;51.156;17.130;2023-12-07T22:35:01;418.52;;;63.45;;
21731;SDS011;11028;51.156;17.130;2023-12-07T22:42:21;472.40;;;65.30;;
21731;SDS011;11028;51.156;17.130;2023-12-07T22:49:40;343.63;;;63.78;;
21731;SDS011;11028;51.156;17.130;2023-12-07T22:56:59;310.70;;;61.33;;
21731;SDS011;11028;51.156;17.130;2023-12-07T23:04:21;329.33;;;58.03;;
21731;SDS011;11028;51.156;17.130;2023-12-07T23:11:40;287.17;;;55.85;;
21731;SDS011;11028;51.156;17.130;2023-12-07T23:18:59;389.65;;;59.22;;
21731;SDS011;11028;51.156;17.130;2023-12-07T23:33:41;223.18;;;52.67;;
21731;SDS011;11028;51.156;17.130;2023-12-07T23:41:00;186.82;;;50.83;;
21731;SDS011;11028;51.156;17.130;2023-12-07T23:48:20;215.10;;;52.33;;
21731;SDS011;11028;51.156;17.130;2023-12-07T23:55:39;218.63;;;52.90;;
